sensor_id;sensor_type;location;lat;lon;timestamp;temperature;humidity
5796;DHT22;2924;51.458;7.046;2023-05-10T00:00:50;12.50;99.90
5796;DHT22;2924;51.458;7.046;2023-05-10T00:03:16;12.50;99.90
5796;DHT22;2924;51.458;7.046;2023-05-10T00:05:42;12.50;99.90
5796;DHT22;2924;51.458;7.046;2023-05-10T00:08:08;12.50;99.90
5796;DHT22;2924;51.458;7.046;2023-05-10T00:10:34;12.50;99.90
5796;DHT22;2924;51.458;7.046;2023-05-10T00:12:59;12.50;99.90
5796;DHT22;2924;51.458;7.046;2023-05-10T00:15:25;12.50;99.90
5796;DHT22;2924;51.458;7.046;2023-05-10T00:17:50;12.40;99.90
5796;DHT22;2924;51.458;7.046;2023-05-10T00:20:16;12.50;99.90
5796;DHT22;2924;51.458;7.046;2023-05-10T00:22:41;12.50;99.90
5796;DHT22;2924;51.458;7.046;2023-05-10T00:25:08;12.40;99.90
5796;DHT22;2924;51.458;7.046;2023-05-10T00:27:33;12.40;99.90
5796;DHT22;2924;51.458;7.046;2023-05-10T00:29:59;12.40;99.90
5796;DHT22;2924;51.458;7.046;2023-05-10T00:32:24;12.40;99.90
5796;DHT22;2924;51.458;7.046;2023-05-10T00:34:50;12.40;99.90
5796;DHT22;2924;51.458;7.046;2023-05-10T00:37:16;12.40;99.90
5796;DHT22;2924;51.458;7.046;2023-05-10T00:39:41;12.40;99.90
5796;DHT22;2924;51.458;7.046;2023-05-10T00:42:07;12.50;99.90
5796;DHT22;2924;51.458;7.046;2023-05-10T00:44:32;12.50;99.90
5796;DHT22;2924;51.458;7.046;2023-05-10T00:46:58;12.50;99.90
5796;DHT22;2924;51.458;7.046;2023-05-10T00:49:24;12.50;99.90
5796;DHT22;2924;51.458;7.046;2023-05-10T00:51:50;12.50;99.90
5796;DHT22;2924;51.458;7.046;2023-05-10T00:54:16;12.50;99.90
5796;DHT22;2924;51.458;7.046;2023-05-10T00:56:42;12.50;99.90
5796;DHT22;2924;51.458;7.046;2023-05-10T00:59:17;12.50;99.90
5796;DHT22;2924;51.458;7.046;2023-05-10T01:05:05;12.40;99.90
5796;DHT22;2924;51.458;7.046;2023-05-10T01:07:31;12.40;99.90
5796;DHT22;2924;51.458;7.046;2023-05-10T01:09:57;12.40;99.90
5796;DHT22;2924;51.458;7.046;2023-05-10T01:12:23;12.30;99.90
5796;DHT22;2924;51.458;7.046;2023-05-10T01:14:48;12.30;99.90
5796;DHT22;2924;51.458;7.046;2023-05-10T01:17:14;12.20;99.90
5796;DHT22;2924;51.458;7.046;2023-05-10T01:19:41;12.20;99.90
5796;DHT22;2924;51.458;7.046;2023-05-10T01:33:01;12.10;99.90
5796;DHT22;2924;51.458;7.046;2023-05-10T01:35:55;12.00;99.90
5796;DHT22;2924;51.458;7.046;2023-05-10T01:38:57;12.00;99.90
5796;DHT22;2924;51.458;7.046;2023-05-10T01:41:49;12.00;99.90
5796;DHT22;2924;51.458;7.046;2023-05-10T01:47:10;12.00;99.90
5796;DHT22;2924;51.458;7.046;2023-05-10T01:49:47;12.00;99.90
5796;DHT22;2924;51.458;7.046;2023-05-10T01:52:18;12.00;99.90
5796;DHT22;2924;51.458;7.046;2023-05-10T01:54:55;12.00;99.90
5796;DHT22;2924;51.458;7.046;2023-05-10T01:57:26;12.00;99.90
5796;DHT22;2924;51.458;7.046;2023-05-10T01:59:53;12.00;99.90
5796;DHT22;2924;51.458;7.046;2023-05-10T02:02:21;12.00;99.90
5796;DHT22;2924;51.458;7.046;2023-05-10T02:04:49;12.00;99.90
5796;DHT22;2924;51.458;7.046;2023-05-10T02:07:16;12.00;99.90
5796;DHT22;2924;51.458;7.046;2023-05-10T02:09:44;11.90;99.90
5796;DHT22;2924;51.458;7.046;2023-05-10T02:12:13;11.90;99.90
5796;DHT22;2924;51.458;7.046;2023-05-10T02:14:41;11.90;99.90
5796;DHT22;2924;51.458;7.046;2023-05-10T02:17:07;11.80;99.90
5796;DHT22;2924;51.458;7.046;2023-05-10T02:19:35;11.80;99.90
5796;DHT22;2924;51.458;7.046;2023-05-10T02:22:03;11.80;99.90
5796;DHT22;2924;51.458;7.046;2023-05-10T02:24:29;11.70;99.90
5796;DHT22;2924;51.458;7.046;2023-05-10T02:26:56;11.70;99.90
5796;DHT22;2924;51.458;7.046;2023-05-10T02:29:26;11.70;99.90
5796;DHT22;2924;51.458;7.046;2023-05-10T02:31:53;11.60;99.90
5796;DHT22;2924;51.458;7.046;2023-05-10T02:34:21;11.60;99.90
5796;DHT22;2924;51.458;7.046;2023-05-10T02:36:47;11.60;99.90
5796;DHT22;2924;51.458;7.046;2023-05-10T02:39:14;11.60;99.90
5796;DHT22;2924;51.458;7.046;2023-05-10T02:41:42;11.50;99.90
5796;DHT22;2924;51.458;7.046;2023-05-10T02:44:08;11.50;99.90
5796;DHT22;2924;51.458;7.046;2023-05-10T02:46:35;11.50;99.90
5796;DHT22;2924;51.458;7.046;2023-05-10T02:49:02;11.50;99.90
5796;DHT22;2924;51.458;7.046;2023-05-10T02:51:31;11.40;99.90
5796;DHT22;2924;51.458;7.046;2023-05-10T02:54:04;11.40;99.90
5796;DHT22;2924;51.458;7.046;2023-05-10T02:56:34;11.40;99.90
5796;DHT22;2924;51.458;7.046;2023-05-10T02:59:01;11.30;99.90
5796;DHT22;2924;51.458;7.046;2023-05-10T03:01:26;11.30;99.90
5796;DHT22;2924;51.458;7.046;2023-05-10T03:03:52;11.30;99.90
5796;DHT22;2924;51.458;7.046;2023-05-10T03:06:17;11.30;99.90
5796;DHT22;2924;51.458;7.046;2023-05-10T03:08:44;11.30;99.90
5796;DHT22;2924;51.458;7.046;2023-05-10T03:11:43;11.30;99.90
5796;DHT22;2924;51.458;7.046;2023-05-10T03:14:34;11.40;99.90
5796;DHT22;2924;51.458;7.046;2023-05-10T03:17:09;11.40;99.90
5796;DHT22;2924;51.458;7.046;2023-05-10T03:19:48;11.50;99.90
5796;DHT22;2924;51.458;7.046;2023-05-10T03:22:24;11.50;99.90
5796;DHT22;2924;51.458;7.046;2023-05-10T03:24:53;11.50;99.90
5796;DHT22;2924;51.458;7.046;2023-05-10T03:27:21;11.60;99.90
5796;DHT22;2924;51.458;7.046;2023-05-10T03:29:47;11.70;99.90
5796;DHT22;2924;51.458;7.046;2023-05-10T03:32:14;11.70;99.90
5796;DHT22;2924;51.458;7.046;2023-05-10T03:34:42;11.70;99.90
5796;DHT22;2924;51.458;7.046;2023-05-10T03:37:09;11.70;99.90
5796;DHT22;2924;51.458;7.046;2023-05-10T03:39:34;11.70;99.90
5796;DHT22;2924;51.458;7.046;2023-05-10T03:42:00;11.80;99.90
5796;DHT22;2924;51.458;7.046;2023-05-10T03:44:25;11.80;99.90
5796;DHT22;2924;51.458;7.046;2023-05-10T03:46:51;11.80;99.90
5796;DHT22;2924;51.458;7.046;2023-05-10T03:49:16;11.80;99.90
5796;DHT22;2924;51.458;7.046;2023-05-10T03:51:42;11.80;99.90
5796;DHT22;2924;51.458;7.046;2023-05-10T03:54:07;11.80;99.90
5796;DHT22;2924;51.458;7.046;2023-05-10T03:56:33;11.80;99.90
5796;DHT22;2924;51.458;7.046;2023-05-10T03:58:58;11.80;99.90
5796;DHT22;2924;51.458;7.046;2023-05-10T04:01:24;11.80;99.90
5796;DHT22;2924;51.458;7.046;2023-05-10T04:03:49;11.80;99.90
5796;DHT22;2924;51.458;7.046;2023-05-10T04:06:15;11.80;99.90
5796;DHT22;2924;51.458;7.046;2023-05-10T04:08:41;11.80;99.90
5796;DHT22;2924;51.458;7.046;2023-05-10T04:11:07;11.90;99.90
5796;DHT22;2924;51.458;7.046;2023-05-10T04:13:33;11.90;99.90
5796;DHT22;2924;51.458;7.046;2023-05-10T04:15:59;11.90;99.90
5796;DHT22;2924;51.458;7.046;2023-05-10T04:18:25;11.90;99.90
5796;DHT22;2924;51.458;7.046;2023-05-10T04:20:50;11.90;99.90
5796;DHT22;2924;51.458;7.046;2023-05-10T04:23:16;12.00;99.90
5796;DHT22;2924;51.458;7.046;2023-05-10T04:25:42;12.00;99.90
5796;DHT22;2924;51.458;7.046;2023-05-10T04:28:07;12.00;99.90
5796;DHT22;2924;51.458;7.046;2023-05-10T04:30:34;12.00;99.90
5796;DHT22;2924;51.458;7.046;2023-05-10T04:32:59;12.00;99.90
5796;DHT22;2924;51.458;7.046;2023-05-10T04:35:25;12.00;99.90
5796;DHT22;2924;51.458;7.046;2023-05-10T04:37:50;12.00;99.90
5796;DHT22;2924;51.458;7.046;2023-05-10T04:40:16;12.00;99.90
5796;DHT22;2924;51.458;7.046;2023-05-10T04:42:42;12.00;99.90
5796;DHT22;2924;51.458;7.046;2023-05-10T04:45:08;12.00;99.90
5796;DHT22;2924;51.458;7.046;2023-05-10T04:47:34;12.10;99.90
5796;DHT22;2924;51.458;7.046;2023-05-10T04:50:00;12.10;99.90
5796;DHT22;2924;51.458;7.046;2023-05-10T04:52:26;12.10;99.90
5796;DHT22;2924;51.458;7.046;2023-05-10T04:54:51;12.10;99.90
5796;DHT22;2924;51.458;7.046;2023-05-10T04:57:17;12.10;99.90
5796;DHT22;2924;51.458;7.046;2023-05-10T04:59:42;12.10;99.90
5796;DHT22;2924;51.458;7.046;2023-05-10T05:02:08;12.20;99.90
5796;DHT22;2924;51.458;7.046;2023-05-10T05:04:33;12.20;99.90
5796;DHT22;2924;51.458;7.046;2023-05-10T05:06:59;12.20;99.90
5796;DHT22;2924;51.458;7.046;2023-05-10T05:09:25;12.20;99.90
5796;DHT22;2924;51.458;7.046;2023-05-10T05:11:50;12.20;99.90
5796;DHT22;2924;51.458;7.046;2023-05-10T05:14:16;12.20;99.90
5796;DHT22;2924;51.458;7.046;2023-05-10T05:16:41;12.30;99.90
5796;DHT22;2924;51.458;7.046;2023-05-10T05:19:07;12.30;99.90
5796;DHT22;2924;51.458;7.046;2023-05-10T05:21:33;12.30;99.90
5796;DHT22;2924;51.458;7.046;2023-05-10T05:23:58;12.40;99.90
5796;DHT22;2924;51.458;7.046;2023-05-10T05:26:24;12.40;99.90
5796;DHT22;2924;51.458;7.046;2023-05-10T05:28:49;12.50;99.90
5796;DHT22;2924;51.458;7.046;2023-05-10T05:31:18;12.50;99.90
5796;DHT22;2924;51.458;7.046;2023-05-10T05:33:44;12.50;99.90
5796;DHT22;2924;51.458;7.046;2023-05-10T05:36:10;12.50;99.90
5796;DHT22;2924;51.458;7.046;2023-05-10T05:38:35;12.60;99.90
5796;DHT22;2924;51.458;7.046;2023-05-10T05:41:01;12.70;99.90
5796;DHT22;2924;51.458;7.046;2023-05-10T05:43:26;12.80;99.90
5796;DHT22;2924;51.458;7.046;2023-05-10T05:45:52;12.80;99.90
5796;DHT22;2924;51.458;7.046;2023-05-10T05:48:19;12.80;99.90
5796;DHT22;2924;51.458;7.046;2023-05-10T05:50:44;12.80;99.90
5796;DHT22;2924;51.458;7.046;2023-05-10T05:53:11;12.80;99.90
5796;DHT22;2924;51.458;7.046;2023-05-10T05:55:36;12.80;99.90
5796;DHT22;2924;51.458;7.046;2023-05-10T05:58:02;12.80;99.90
5796;DHT22;2924;51.458;7.046;2023-05-10T06:00:28;12.90;99.90
5796;DHT22;2924;51.458;7.046;2023-05-10T06:02:54;12.90;99.90
5796;DHT22;2924;51.458;7.046;2023-05-10T06:05:19;13.00;99.90
5796;DHT22;2924;51.458;7.046;2023-05-10T06:07:46;13.10;99.90
5796;DHT22;2924;51.458;7.046;2023-05-10T06:10:11;13.20;99.90
5796;DHT22;2924;51.458;7.046;2023-05-10T06:12:37;13.40;99.90
5796;DHT22;2924;51.458;7.046;2023-05-10T06:15:03;13.50;99.90
5796;DHT22;2924;51.458;7.046;2023-05-10T06:17:29;13.70;99.90
5796;DHT22;2924;51.458;7.046;2023-05-10T06:19:55;13.80;99.90
5796;DHT22;2924;51.458;7.046;2023-05-10T06:22:21;13.90;99.90
5796;DHT22;2924;51.458;7.046;2023-05-10T06:24:48;14.00;99.90
5796;DHT22;2924;51.458;7.046;2023-05-10T06:27:14;14.20;99.90
5796;DHT22;2924;51.458;7.046;2023-05-10T06:29:40;14.40;99.90
5796;DHT22;2924;51.458;7.046;2023-05-10T06:32:06;14.60;99.90
5796;DHT22;2924;51.458;7.046;2023-05-10T06:34:31;14.90;99.90
5796;DHT22;2924;51.458;7.046;2023-05-10T06:36:57;15.10;99.90
5796;DHT22;2924;51.458;7.046;2023-05-10T06:39:23;15.10;99.90
5796;DHT22;2924;51.458;7.046;2023-05-10T06:41:48;15.20;99.90
5796;DHT22;2924;51.458;7.046;2023-05-10T06:44:14;15.10;99.90
5796;DHT22;2924;51.458;7.046;2023-05-10T06:46:39;14.90;99.90
5796;DHT22;2924;51.458;7.046;2023-05-10T06:49:06;15.00;99.90
5796;DHT22;2924;51.458;7.046;2023-05-10T06:51:31;14.90;99.90
5796;DHT22;2924;51.458;7.046;2023-05-10T06:53:58;15.00;99.90
5796;DHT22;2924;51.458;7.046;2023-05-10T06:56:23;15.10;99.90
5796;DHT22;2924;51.458;7.046;2023-05-10T06:58:49;15.10;99.90
5796;DHT22;2924;51.458;7.046;2023-05-10T07:01:14;15.20;99.90
5796;DHT22;2924;51.458;7.046;2023-05-10T07:03:40;15.30;99.90
5796;DHT22;2924;51.458;7.046;2023-05-10T07:06:05;15.40;99.90
5796;DHT22;2924;51.458;7.046;2023-05-10T07:08:33;15.60;99.90
5796;DHT22;2924;51.458;7.046;2023-05-10T07:11:06;15.70;99.90
5796;DHT22;2924;51.458;7.046;2023-05-10T07:13:35;15.70;99.90
5796;DHT22;2924;51.458;7.046;2023-05-10T07:16:02;15.90;99.90
5796;DHT22;2924;51.458;7.046;2023-05-10T07:18:28;16.10;99.90
5796;DHT22;2924;51.458;7.046;2023-05-10T07:20:54;16.40;99.90
5796;DHT22;2924;51.458;7.046;2023-05-10T07:23:19;16.70;99.90
5796;DHT22;2924;51.458;7.046;2023-05-10T07:25:49;16.90;99.90
5796;DHT22;2924;51.458;7.046;2023-05-10T07:28:16;16.90;99.90
5796;DHT22;2924;51.458;7.046;2023-05-10T07:30:42;16.80;99.90
5796;DHT22;2924;51.458;7.046;2023-05-10T07:33:09;17.00;99.90
5796;DHT22;2924;51.458;7.046;2023-05-10T07:35:35;17.10;99.90
5796;DHT22;2924;51.458;7.046;2023-05-10T07:38:01;17.20;99.90
5796;DHT22;2924;51.458;7.046;2023-05-10T07:40:28;17.20;99.90
5796;DHT22;2924;51.458;7.046;2023-05-10T07:42:53;17.30;99.90
5796;DHT22;2924;51.458;7.046;2023-05-10T07:45:19;17.30;99.90
5796;DHT22;2924;51.458;7.046;2023-05-10T07:47:45;17.10;99.90
5796;DHT22;2924;51.458;7.046;2023-05-10T07:50:10;16.80;99.90
5796;DHT22;2924;51.458;7.046;2023-05-10T07:52:36;16.70;99.90
5796;DHT22;2924;51.458;7.046;2023-05-10T07:55:02;16.70;99.90
5796;DHT22;2924;51.458;7.046;2023-05-10T07:57:27;16.50;99.90
5796;DHT22;2924;51.458;7.046;2023-05-10T07:59:53;16.00;99.90
5796;DHT22;2924;51.458;7.046;2023-05-10T08:02:18;15.80;99.90
5796;DHT22;2924;51.458;7.046;2023-05-10T08:04:44;15.60;99.90
5796;DHT22;2924;51.458;7.046;2023-05-10T08:07:09;15.50;99.90
5796;DHT22;2924;51.458;7.046;2023-05-10T08:09:36;15.30;99.90
5796;DHT22;2924;51.458;7.046;2023-05-10T08:12:01;15.30;99.90
5796;DHT22;2924;51.458;7.046;2023-05-10T08:14:30;15.30;99.90
5796;DHT22;2924;51.458;7.046;2023-05-10T08:16:56;15.20;99.90
5796;DHT22;2924;51.458;7.046;2023-05-10T08:19:21;15.20;99.90
5796;DHT22;2924;51.458;7.046;2023-05-10T08:21:48;15.20;99.90
5796;DHT22;2924;51.458;7.046;2023-05-10T08:24:14;15.30;99.90
5796;DHT22;2924;51.458;7.046;2023-05-10T08:26:40;15.40;99.90
5796;DHT22;2924;51.458;7.046;2023-05-10T08:29:06;15.30;99.90
5796;DHT22;2924;51.458;7.046;2023-05-10T08:31:31;15.10;99.90
5796;DHT22;2924;51.458;7.046;2023-05-10T08:33:57;14.80;99.90
5796;DHT22;2924;51.458;7.046;2023-05-10T08:36:22;14.50;99.90
5796;DHT22;2924;51.458;7.046;2023-05-10T08:38:53;14.50;99.90
5796;DHT22;2924;51.458;7.046;2023-05-10T08:41:22;14.60;99.90
5796;DHT22;2924;51.458;7.046;2023-05-10T08:43:50;14.90;99.90
5796;DHT22;2924;51.458;7.046;2023-05-10T08:46:18;15.20;99.90
5796;DHT22;2924;51.458;7.046;2023-05-10T08:48:47;15.80;99.90
5796;DHT22;2924;51.458;7.046;2023-05-10T08:51:15;16.20;99.90
5796;DHT22;2924;51.458;7.046;2023-05-10T08:53:44;16.50;99.90
5796;DHT22;2924;51.458;7.046;2023-05-10T08:56:09;16.60;99.90
5796;DHT22;2924;51.458;7.046;2023-05-10T08:58:36;16.60;99.90
5796;DHT22;2924;51.458;7.046;2023-05-10T09:01:02;16.60;99.90
5796;DHT22;2924;51.458;7.046;2023-05-10T09:03:28;16.70;99.90
5796;DHT22;2924;51.458;7.046;2023-05-10T09:05:55;16.60;99.90
5796;DHT22;2924;51.458;7.046;2023-05-10T09:08:22;16.50;99.90
5796;DHT22;2924;51.458;7.046;2023-05-10T09:10:50;16.60;99.90
5796;DHT22;2924;51.458;7.046;2023-05-10T09:13:17;16.60;99.90
5796;DHT22;2924;51.458;7.046;2023-05-10T09:15:44;16.50;99.90
5796;DHT22;2924;51.458;7.046;2023-05-10T09:18:10;16.30;99.90
5796;DHT22;2924;51.458;7.046;2023-05-10T09:20:35;16.30;99.90
5796;DHT22;2924;51.458;7.046;2023-05-10T09:23:01;16.30;99.90
5796;DHT22;2924;51.458;7.046;2023-05-10T09:25:27;16.60;99.90
5796;DHT22;2924;51.458;7.046;2023-05-10T09:27:52;17.10;99.90
5796;DHT22;2924;51.458;7.046;2023-05-10T09:30:29;17.50;99.90
5796;DHT22;2924;51.458;7.046;2023-05-10T09:32:56;17.80;99.90
5796;DHT22;2924;51.458;7.046;2023-05-10T09:35:24;18.30;99.90
5796;DHT22;2924;51.458;7.046;2023-05-10T09:37:53;18.70;99.90
5796;DHT22;2924;51.458;7.046;2023-05-10T09:40:23;18.80;99.90
5796;DHT22;2924;51.458;7.046;2023-05-10T09:42:58;18.40;99.90
5796;DHT22;2924;51.458;7.046;2023-05-10T09:45:25;18.00;99.90
5796;DHT22;2924;51.458;7.046;2023-05-10T09:47:52;17.60;99.90
5796;DHT22;2924;51.458;7.046;2023-05-10T09:50:19;17.40;99.90
5796;DHT22;2924;51.458;7.046;2023-05-10T09:52:49;17.40;99.90
5796;DHT22;2924;51.458;7.046;2023-05-10T09:55:18;17.50;99.90
5796;DHT22;2924;51.458;7.046;2023-05-10T09:57:46;17.60;99.90
5796;DHT22;2924;51.458;7.046;2023-05-10T10:00:18;17.60;99.90
5796;DHT22;2924;51.458;7.046;2023-05-10T10:02:53;17.50;99.90
5796;DHT22;2924;51.458;7.046;2023-05-10T10:05:19;17.60;99.90
5796;DHT22;2924;51.458;7.046;2023-05-10T10:07:44;17.60;99.90
5796;DHT22;2924;51.458;7.046;2023-05-10T10:10:10;17.80;99.90
5796;DHT22;2924;51.458;7.046;2023-05-10T10:12:39;18.40;99.90
5796;DHT22;2924;51.458;7.046;2023-05-10T10:15:05;19.00;99.90
5796;DHT22;2924;51.458;7.046;2023-05-10T10:17:32;19.60;99.90
5796;DHT22;2924;51.458;7.046;2023-05-10T10:20:02;19.80;99.90
5796;DHT22;2924;51.458;7.046;2023-05-10T10:22:28;19.90;99.90
5796;DHT22;2924;51.458;7.046;2023-05-10T10:24:54;19.80;99.90
5796;DHT22;2924;51.458;7.046;2023-05-10T10:27:26;19.50;99.90
5796;DHT22;2924;51.458;7.046;2023-05-10T10:32:55;19.30;99.90
5796;DHT22;2924;51.458;7.046;2023-05-10T10:35:25;19.60;99.90
5796;DHT22;2924;51.458;7.046;2023-05-10T10:37:51;19.90;99.90
5796;DHT22;2924;51.458;7.046;2023-05-10T10:40:33;19.80;99.90
5796;DHT22;2924;51.458;7.046;2023-05-10T10:43:22;19.80;99.90
5796;DHT22;2924;51.458;7.046;2023-05-10T10:46:24;19.60;99.90
5796;DHT22;2924;51.458;7.046;2023-05-10T10:49:08;19.30;99.90
5796;DHT22;2924;51.458;7.046;2023-05-10T10:51:38;18.80;99.90
5796;DHT22;2924;51.458;7.046;2023-05-10T10:54:10;18.20;99.90
5796;DHT22;2924;51.458;7.046;2023-05-10T10:56:36;17.90;99.90
5796;DHT22;2924;51.458;7.046;2023-05-10T10:59:01;17.70;99.90
5796;DHT22;2924;51.458;7.046;2023-05-10T11:01:33;17.70;99.90
5796;DHT22;2924;51.458;7.046;2023-05-10T11:06:31;18.30;99.90
5796;DHT22;2924;51.458;7.046;2023-05-10T11:08:58;18.50;99.90
5796;DHT22;2924;51.458;7.046;2023-05-10T11:11:23;18.60;99.90
5796;DHT22;2924;51.458;7.046;2023-05-10T11:13:49;18.80;99.90
5796;DHT22;2924;51.458;7.046;2023-05-10T11:16:16;18.80;99.90
5796;DHT22;2924;51.458;7.046;2023-05-10T11:18:52;19.00;99.90
5796;DHT22;2924;51.458;7.046;2023-05-10T11:21:18;19.30;99.90
5796;DHT22;2924;51.458;7.046;2023-05-10T11:23:50;19.60;99.90
5796;DHT22;2924;51.458;7.046;2023-05-10T11:26:16;19.90;99.90
5796;DHT22;2924;51.458;7.046;2023-05-10T11:28:46;20.10;99.90
5796;DHT22;2924;51.458;7.046;2023-05-10T11:31:19;20.10;99.90
5796;DHT22;2924;51.458;7.046;2023-05-10T11:33:49;20.10;99.90
5796;DHT22;2924;51.458;7.046;2023-05-10T11:36:20;19.80;99.90
5796;DHT22;2924;51.458;7.046;2023-05-10T11:38:46;19.70;99.90
5796;DHT22;2924;51.458;7.046;2023-05-10T11:41:12;19.50;99.90
5796;DHT22;2924;51.458;7.046;2023-05-10T11:43:42;19.20;99.90
5796;DHT22;2924;51.458;7.046;2023-05-10T11:46:12;18.60;99.90
5796;DHT22;2924;51.458;7.046;2023-05-10T11:48:42;18.10;99.90
5796;DHT22;2924;51.458;7.046;2023-05-10T11:51:08;17.50;99.90
5796;DHT22;2924;51.458;7.046;2023-05-10T11:53:34;17.20;99.90
5796;DHT22;2924;51.458;7.046;2023-05-10T11:56:07;17.10;99.90
5796;DHT22;2924;51.458;7.046;2023-05-10T11:58:33;17.20;99.90
5796;DHT22;2924;51.458;7.046;2023-05-10T12:01:00;17.40;99.90
5796;DHT22;2924;51.458;7.046;2023-05-10T12:03:27;17.60;99.90
5796;DHT22;2924;51.458;7.046;2023-05-10T12:05:54;17.90;99.90
5796;DHT22;2924;51.458;7.046;2023-05-10T12:08:22;18.20;99.90
5796;DHT22;2924;51.458;7.046;2023-05-10T12:10:48;18.30;99.90
5796;DHT22;2924;51.458;7.046;2023-05-10T12:13:14;18.60;99.90
5796;DHT22;2924;51.458;7.046;2023-05-10T12:15:40;18.80;99.90
5796;DHT22;2924;51.458;7.046;2023-05-10T12:18:11;19.10;99.90
5796;DHT22;2924;51.458;7.046;2023-05-10T12:20:37;19.50;99.90
5796;DHT22;2924;51.458;7.046;2023-05-10T12:23:03;19.70;99.90
5796;DHT22;2924;51.458;7.046;2023-05-10T12:25:36;19.90;99.90
5796;DHT22;2924;51.458;7.046;2023-05-10T12:28:06;19.90;99.90
5796;DHT22;2924;51.458;7.046;2023-05-10T12:30:34;20.10;99.90
5796;DHT22;2924;51.458;7.046;2023-05-10T12:33:11;20.30;99.90
5796;DHT22;2924;51.458;7.046;2023-05-10T12:35:46;20.50;99.90
5796;DHT22;2924;51.458;7.046;2023-05-10T12:38:30;20.60;99.90
5796;DHT22;2924;51.458;7.046;2023-05-10T12:41:01;20.60;99.90
5796;DHT22;2924;51.458;7.046;2023-05-10T12:43:28;20.70;99.90
5796;DHT22;2924;51.458;7.046;2023-05-10T12:45:53;20.90;99.90
5796;DHT22;2924;51.458;7.046;2023-05-10T12:48:19;20.80;99.90
5796;DHT22;2924;51.458;7.046;2023-05-10T12:50:46;20.50;99.90
5796;DHT22;2924;51.458;7.046;2023-05-10T12:53:13;20.40;99.90
5796;DHT22;2924;51.458;7.046;2023-05-10T12:55:41;20.50;99.90
5796;DHT22;2924;51.458;7.046;2023-05-10T12:58:06;20.60;99.90
5796;DHT22;2924;51.458;7.046;2023-05-10T13:00:32;20.90;99.90
5796;DHT22;2924;51.458;7.046;2023-05-10T13:02:57;21.10;99.90
5796;DHT22;2924;51.458;7.046;2023-05-10T13:05:23;21.10;99.90
5796;DHT22;2924;51.458;7.046;2023-05-10T13:07:48;21.20;99.90
5796;DHT22;2924;51.458;7.046;2023-05-10T13:10:14;21.20;99.90
5796;DHT22;2924;51.458;7.046;2023-05-10T13:12:40;21.50;99.90
5796;DHT22;2924;51.458;7.046;2023-05-10T13:15:06;21.60;99.90
5796;DHT22;2924;51.458;7.046;2023-05-10T13:17:32;21.90;99.90
5796;DHT22;2924;51.458;7.046;2023-05-10T13:19:57;22.10;99.90
5796;DHT22;2924;51.458;7.046;2023-05-10T13:22:23;22.40;99.90
5796;DHT22;2924;51.458;7.046;2023-05-10T13:24:48;22.80;99.90
5796;DHT22;2924;51.458;7.046;2023-05-10T13:27:14;23.10;99.90
5796;DHT22;2924;51.458;7.046;2023-05-10T13:29:39;23.30;99.90
5796;DHT22;2924;51.458;7.046;2023-05-10T13:32:05;23.30;99.90
5796;DHT22;2924;51.458;7.046;2023-05-10T13:34:31;23.40;99.90
5796;DHT22;2924;51.458;7.046;2023-05-10T13:36:57;23.80;99.90
5796;DHT22;2924;51.458;7.046;2023-05-10T13:39:23;23.90;99.90
5796;DHT22;2924;51.458;7.046;2023-05-10T13:41:48;23.90;99.90
5796;DHT22;2924;51.458;7.046;2023-05-10T13:44:14;23.80;99.90
5796;DHT22;2924;51.458;7.046;2023-05-10T13:46:41;23.50;99.90
5796;DHT22;2924;51.458;7.046;2023-05-10T13:49:08;23.10;99.90
5796;DHT22;2924;51.458;7.046;2023-05-10T13:51:34;22.50;99.90
5796;DHT22;2924;51.458;7.046;2023-05-10T13:54:00;22.00;99.90
5796;DHT22;2924;51.458;7.046;2023-05-10T13:56:25;21.80;99.90
5796;DHT22;2924;51.458;7.046;2023-05-10T13:58:51;21.90;99.90
5796;DHT22;2924;51.458;7.046;2023-05-10T14:01:16;21.90;99.90
5796;DHT22;2924;51.458;7.046;2023-05-10T14:03:42;21.90;99.90
5796;DHT22;2924;51.458;7.046;2023-05-10T14:06:08;21.90;99.90
5796;DHT22;2924;51.458;7.046;2023-05-10T14:08:34;22.30;99.90
5796;DHT22;2924;51.458;7.046;2023-05-10T14:11:00;22.80;99.90
5796;DHT22;2924;51.458;7.046;2023-05-10T14:13:26;23.10;99.90
5796;DHT22;2924;51.458;7.046;2023-05-10T14:15:53;23.00;99.90
5796;DHT22;2924;51.458;7.046;2023-05-10T14:18:18;22.60;99.90
5796;DHT22;2924;51.458;7.046;2023-05-10T14:20:44;22.60;99.90
5796;DHT22;2924;51.458;7.046;2023-05-10T14:23:10;23.00;99.90
5796;DHT22;2924;51.458;7.046;2023-05-10T14:25:35;23.60;99.90
5796;DHT22;2924;51.458;7.046;2023-05-10T14:28:01;24.00;99.90
5796;DHT22;2924;51.458;7.046;2023-05-10T14:30:26;24.20;99.90
5796;DHT22;2924;51.458;7.046;2023-05-10T14:32:52;24.60;99.40
5796;DHT22;2924;51.458;7.046;2023-05-10T14:35:19;24.90;98.00
5796;DHT22;2924;51.458;7.046;2023-05-10T14:37:45;25.00;98.30
5796;DHT22;2924;51.458;7.046;2023-05-10T14:40:11;24.80;97.30
5796;DHT22;2924;51.458;7.046;2023-05-10T14:42:37;24.40;98.00
5796;DHT22;2924;51.458;7.046;2023-05-10T14:45:03;24.00;98.50
5796;DHT22;2924;51.458;7.046;2023-05-10T14:47:29;23.60;99.90
5796;DHT22;2924;51.458;7.046;2023-05-10T14:49:54;23.60;99.90
5796;DHT22;2924;51.458;7.046;2023-05-10T14:52:20;23.60;99.90
5796;DHT22;2924;51.458;7.046;2023-05-10T14:54:45;23.40;99.90
5796;DHT22;2924;51.458;7.046;2023-05-10T14:57:11;23.40;99.90
5796;DHT22;2924;51.458;7.046;2023-05-10T14:59:37;23.00;99.90
5796;DHT22;2924;51.458;7.046;2023-05-10T15:02:02;23.00;99.90
5796;DHT22;2924;51.458;7.046;2023-05-10T15:04:29;23.00;99.90
5796;DHT22;2924;51.458;7.046;2023-05-10T15:06:55;23.10;99.90
5796;DHT22;2924;51.458;7.046;2023-05-10T15:09:24;22.70;99.90
5796;DHT22;2924;51.458;7.046;2023-05-10T15:11:50;22.40;99.90
5796;DHT22;2924;51.458;7.046;2023-05-10T15:14:16;22.40;99.90
5796;DHT22;2924;51.458;7.046;2023-05-10T15:16:41;22.40;99.90
5796;DHT22;2924;51.458;7.046;2023-05-10T15:19:07;22.70;99.90
5796;DHT22;2924;51.458;7.046;2023-05-10T15:21:32;23.10;99.90
5796;DHT22;2924;51.458;7.046;2023-05-10T15:24:07;23.50;99.90
5796;DHT22;2924;51.458;7.046;2023-05-10T15:26:32;23.50;99.90
5796;DHT22;2924;51.458;7.046;2023-05-10T15:28:58;23.10;99.90
5796;DHT22;2924;51.458;7.046;2023-05-10T15:31:24;22.70;99.90
5796;DHT22;2924;51.458;7.046;2023-05-10T15:33:50;22.30;99.90
5796;DHT22;2924;51.458;7.046;2023-05-10T15:36:15;21.70;99.90
5796;DHT22;2924;51.458;7.046;2023-05-10T15:38:43;21.20;99.90
5796;DHT22;2924;51.458;7.046;2023-05-10T15:41:08;20.90;99.90
5796;DHT22;2924;51.458;7.046;2023-05-10T15:43:34;20.60;99.90
5796;DHT22;2924;51.458;7.046;2023-05-10T15:46:00;20.40;99.90
5796;DHT22;2924;51.458;7.046;2023-05-10T15:48:25;20.30;99.90
5796;DHT22;2924;51.458;7.046;2023-05-10T15:50:51;20.30;99.90
5796;DHT22;2924;51.458;7.046;2023-05-10T15:53:16;20.30;99.90
5796;DHT22;2924;51.458;7.046;2023-05-10T15:55:42;20.30;99.90
5796;DHT22;2924;51.458;7.046;2023-05-10T15:58:08;20.40;99.90
5796;DHT22;2924;51.458;7.046;2023-05-10T16:00:33;20.70;99.90
5796;DHT22;2924;51.458;7.046;2023-05-10T16:02:59;20.90;99.90
5796;DHT22;2924;51.458;7.046;2023-05-10T16:05:25;21.00;99.90
5796;DHT22;2924;51.458;7.046;2023-05-10T16:07:54;20.80;99.90
5796;DHT22;2924;51.458;7.046;2023-05-10T16:10:20;20.30;99.90
5796;DHT22;2924;51.458;7.046;2023-05-10T16:12:45;20.00;99.90
5796;DHT22;2924;51.458;7.046;2023-05-10T16:15:11;19.80;99.90
5796;DHT22;2924;51.458;7.046;2023-05-10T16:17:37;19.80;99.90
5796;DHT22;2924;51.458;7.046;2023-05-10T16:20:02;19.80;99.90
5796;DHT22;2924;51.458;7.046;2023-05-10T16:22:28;19.80;99.90
5796;DHT22;2924;51.458;7.046;2023-05-10T16:24:56;19.60;99.90